createdAt,value
2022-09-05T00:02:35.747Z,101394.13
2022-09-05T00:05:33.937Z,101389.00
2022-09-05T00:08:13.515Z,101395.28
2022-09-05T00:11:41.803Z,101400.66
2022-09-05T00:13:42.993Z,101403.56
2022-09-05T00:16:37.589Z,101379.25
2022-09-05T00:24:17.194Z,101402.09
2022-09-05T00:24:29.712Z,101409.22
2022-09-05T00:25:31.662Z,101406.06
2022-09-05T00:28:25.400Z,101400.19
2022-09-05T00:31:56.082Z,101397.91
2022-09-05T00:34:22.725Z,101402.28
2022-09-05T00:36:54.835Z,101400.28
2022-09-05T00:39:27.270Z,101399.75
2022-09-05T00:41:59.820Z,101401.94
2022-09-05T00:44:32.726Z,101400.13
2022-09-05T00:47:07.853Z,101402.66
2022-09-05T00:49:44.985Z,101392.38
2022-09-05T00:52:19.044Z,101411.00
2022-09-05T00:55:14.167Z,101409.34
2022-09-05T00:58:12.478Z,101398.44
2022-09-05T01:00:52.781Z,101407.88
2022-09-05T01:03:53.574Z,101408.53
2022-09-05T01:06:43.929Z,101407.69
2022-09-05T01:09:21.981Z,101401.91
2022-09-05T01:12:05.534Z,101408.16
2022-09-05T01:14:51.267Z,101407.03
2022-09-05T01:17:28.302Z,101414.03
2022-09-05T01:20:19.561Z,101409.84
2022-09-05T01:23:31.030Z,101410.50
2022-09-05T01:26:25.453Z,101412.56
2022-09-05T01:29:18.619Z,101421.94
2022-09-05T01:32:07.211Z,101410.72
2022-09-05T01:34:47.147Z,101411.31
2022-09-05T01:37:32.683Z,101410.72
2022-09-05T01:40:16.510Z,101406.25
2022-09-05T01:42:59.573Z,101409.69
2022-09-05T01:45:42.073Z,101411.88
2022-09-05T01:48:18.981Z,101417.91
2022-09-05T01:50:58.081Z,101415.94
2022-09-05T01:53:38.882Z,101412.94
2022-09-05T01:56:30.101Z,101406.84
2022-09-05T01:59:15.826Z,101400.25
2022-09-05T02:02:07.011Z,101401.25
2022-09-05T02:05:02.610Z,101400.50
2022-09-05T02:07:38.906Z,101397.31
2022-09-05T02:10:23.123Z,101398.06
2022-09-05T02:13:02.795Z,101394.19
2022-09-05T02:15:52.462Z,101399.88
2022-09-05T02:18:44.403Z,101409.03
2022-09-05T02:21:21.615Z,101403.16
2022-09-05T02:24:02.653Z,101406.06
2022-09-05T02:26:35.938Z,101400.53
2022-09-05T02:29:13.183Z,101394.78
2022-09-05T02:32:03.210Z,101394.03
2022-09-05T02:34:42.698Z,101386.38
2022-09-05T02:37:22.828Z,101383.31
2022-09-05T02:45:01.506Z,101391.66
2022-09-05T02:45:07.890Z,101388.28
2022-09-05T02:46:12.574Z,101377.47
2022-09-05T02:48:54.215Z,101380.09
2022-09-05T02:57:25.943Z,101376.91
2022-09-05T02:57:38.990Z,101390.81
2022-09-05T02:57:41.588Z,101398.84
2022-09-05T03:00:13.127Z,101404.63
2022-09-05T03:03:16.310Z,101399.13
2022-09-05T03:05:51.103Z,101408.19
2022-09-05T03:08:45.468Z,101399.69
2022-09-05T03:11:49.627Z,101412.28
2022-09-05T03:14:46.384Z,101414.25
2022-09-05T03:17:51.076Z,101422.81
2022-09-05T03:21:09.957Z,101425.53
2022-09-05T03:24:16.662Z,101426.47
2022-09-05T03:27:17.809Z,101422.44
2022-09-05T03:30:06.339Z,101414.41
2022-09-05T03:33:17.719Z,101423.75
2022-09-05T03:36:19.162Z,101419.00
2022-09-05T03:39:24.561Z,101428.59
2022-09-05T03:42:16.042Z,101425.25
2022-09-05T03:45:12.927Z,101420.34
2022-09-05T03:48:28.087Z,101429.69
2022-09-05T03:57:04.868Z,101435.94
2022-09-05T03:57:19.058Z,101442.59
2022-09-05T03:57:41.725Z,101447.13
2022-09-05T04:00:21.035Z,101456.81
2022-09-05T04:05:40.351Z,101453.03
2022-09-05T04:08:18.261Z,101442.22
2022-09-05T04:08:53.331Z,101451.19
2022-09-05T04:11:31.883Z,101454.34
2022-09-05T04:14:04.873Z,101461.50
2022-09-05T04:16:43.637Z,101468.78
2022-09-05T04:19:25.938Z,101471.13
2022-09-05T04:22:01.307Z,101472.69
2022-09-05T04:24:35.713Z,101452.66
2022-09-05T04:27:27.871Z,101482.97
2022-09-05T04:30:04.958Z,101482.13
2022-09-05T04:32:58.636Z,101478.59
2022-09-05T04:35:40.949Z,101473.50
2022-09-05T04:38:15.190Z,101485.16
2022-09-05T04:41:00.413Z,101481.81
2022-09-05T04:43:36.632Z,101486.09
2022-09-05T04:46:19.264Z,101485.69
2022-09-05T04:48:56.509Z,101487.56
2022-09-05T04:51:59.977Z,101482.53
2022-09-05T04:54:36.386Z,101476.84
2022-09-05T04:57:24.152Z,101487.44
2022-09-05T05:04:33.769Z,101476.09
2022-09-05T05:06:10.494Z,101490.41
2022-09-05T05:06:20.301Z,101479.91
2022-09-05T05:08:50.621Z,101494.09
2022-09-05T05:16:32.503Z,101484.16
2022-09-05T05:18:07.634Z,101487.78
2022-09-05T05:18:16.247Z,101483.47
2022-09-05T05:20:43.056Z,101487.44
2022-09-05T05:23:07.555Z,101489.38
2022-09-05T05:25:46.300Z,101493.97
2022-09-05T05:28:24.517Z,101500.81
2022-09-05T05:31:01.121Z,101496.19
2022-09-05T05:33:33.908Z,101493.47
2022-09-05T05:36:08.256Z,101503.78
2022-09-05T05:38:45.065Z,101503.56
2022-09-05T05:41:20.303Z,101501.28
2022-09-05T05:43:50.142Z,101499.13
2022-09-05T05:46:31.885Z,101496.06
2022-09-05T05:49:25.242Z,101509.97
2022-09-05T05:52:09.577Z,101507.31
2022-09-05T05:54:47.429Z,101501.91
2022-09-05T05:57:29.004Z,101514.22
2022-09-05T06:00:14.962Z,101500.34
2022-09-05T06:03:26.918Z,101508.06
2022-09-05T06:06:33.973Z,101506.38
2022-09-05T06:14:53.092Z,101497.56
2022-09-05T06:15:02.949Z,101510.78
2022-09-05T06:16:09.514Z,101511.63
2022-09-05T06:19:11.848Z,101510.84
2022-09-05T06:22:21.423Z,101527.63
2022-09-05T06:25:34.606Z,101516.56
2022-09-05T06:28:18.953Z,101526.50
2022-09-05T06:31:28.970Z,101530.31
2022-09-05T06:34:00.758Z,101527.75
2022-09-05T06:36:55.683Z,101527.97
2022-09-05T06:39:42.472Z,101525.75
2022-09-05T06:42:30.688Z,101524.38
2022-09-05T06:45:39.437Z,101531.91
2022-09-05T06:48:27.726Z,101534.19
2022-09-05T06:51:44.227Z,101528.91
2022-09-05T06:55:07.202Z,101542.53
2022-09-05T06:57:55.401Z,101541.69
2022-09-05T07:00:26.230Z,101541.53
2022-09-05T07:03:22.883Z,101540.56
2022-09-05T07:05:58.557Z,101545.19
2022-09-05T07:08:36.273Z,101551.56
2022-09-05T07:11:15.672Z,101546.16
2022-09-05T07:13:55.482Z,101545.50
2022-09-05T07:16:38.489Z,101540.06
2022-09-05T07:19:25.594Z,101548.50
2022-09-05T07:22:44.537Z,101558.22
2022-09-05T07:24:57.795Z,101556.19
2022-09-05T07:27:34.749Z,101558.97
2022-09-05T07:30:23.267Z,101560.53
2022-09-05T07:32:54.359Z,101562.53
2022-09-05T07:35:29.370Z,101561.28
2022-09-05T07:38:07.187Z,101555.28
2022-09-05T07:40:40.586Z,101562.03
2022-09-05T07:43:14.252Z,101559.34
2022-09-05T07:45:55.335Z,101563.53
2022-09-05T07:48:35.166Z,101555.91
2022-09-05T07:57:05.168Z,101552.47
2022-09-05T07:57:10.320Z,101559.28
2022-09-05T07:57:25.490Z,101553.03
2022-09-05T07:59:42.745Z,101566.50
2022-09-05T08:02:13.981Z,101564.00
2022-09-05T08:04:43.037Z,101558.78
2022-09-05T08:07:46.548Z,101562.41
2022-09-05T08:10:11.123Z,101554.53
2022-09-05T08:13:22.597Z,101560.69
2022-09-05T08:16:10.727Z,101559.34
2022-09-05T08:18:37.957Z,101557.22
2022-09-05T08:57:18.395Z,101537.59
2022-09-05T09:00:19.057Z,101547.84
2022-09-05T09:03:04.537Z,101537.84
2022-09-05T09:06:14.425Z,101533.53
2022-09-05T09:08:54.511Z,101550.34
2022-09-05T09:11:34.408Z,101540.16
2022-09-05T09:14:50.007Z,101535.13
2022-09-05T09:17:43.093Z,101539.41
2022-09-05T09:20:26.614Z,101539.13
2022-09-05T09:22:59.634Z,101540.56
2022-09-05T09:25:33.988Z,101536.75
2022-09-05T09:28:49.832Z,101538.00
2022-09-05T09:31:50.401Z,101522.22
2022-09-05T09:34:39.656Z,101534.78
2022-09-05T09:37:59.962Z,101531.72
2022-09-05T09:41:00.796Z,101529.09
2022-09-05T09:43:53.022Z,101534.50
2022-09-05T09:46:34.151Z,101524.56
2022-09-05T09:49:31.715Z,101525.09
2022-09-05T09:52:32.295Z,101530.09
2022-09-05T09:55:34.181Z,101521.47
2022-09-05T09:58:34.520Z,101509.84
2022-09-05T10:01:34.805Z,101514.84
2022-09-05T10:07:08.689Z,101510.28
2022-09-05T10:10:44.108Z,101515.13
2022-09-05T10:11:44.077Z,101512.50
2022-09-05T10:14:47.691Z,101518.72
2022-09-05T10:17:35.232Z,101514.09
2022-09-05T10:20:32.437Z,101511.38
2022-09-05T10:23:24.419Z,101509.38
2022-09-05T10:26:09.011Z,101504.06
2022-09-05T10:28:40.598Z,101509.38
2022-09-05T10:33:32.406Z,101517.50
2022-09-05T10:35:13.149Z,101506.03
2022-09-05T10:37:13.233Z,101509.38
2022-09-05T10:39:47.282Z,101488.88
2022-09-05T10:42:25.486Z,101509.13
2022-09-05T10:44:56.227Z,101503.16
2022-09-05T10:47:36.672Z,101489.22
2022-09-05T10:50:20.724Z,101490.00
2022-09-05T10:53:10.053Z,101494.53
2022-09-05T10:55:52.465Z,101494.06
2022-09-05T10:59:31.752Z,101495.25
2022-09-05T11:02:27.376Z,101495.41
2022-09-05T11:04:46.726Z,101479.41
2022-09-05T11:07:29.482Z,101485.44
2022-09-05T11:10:08.417Z,101473.91
2022-09-05T11:12:58.833Z,101477.91
2022-09-05T11:15:34.421Z,101476.72
2022-09-05T11:18:05.154Z,101468.59
2022-09-05T11:20:51.971Z,101465.25
2022-09-05T11:23:23.880Z,101465.63
2022-09-05T11:26:02.152Z,101470.06
2022-09-05T11:28:59.890Z,101456.84
2022-09-05T11:32:37.078Z,101446.78
2022-09-05T11:39:46.311Z,101444.75
2022-09-05T11:40:09.609Z,101440.19
2022-09-05T11:42:02.500Z,101427.00
2022-09-05T11:44:36.562Z,101418.38
2022-09-05T11:47:39.950Z,101424.19
2022-09-05T11:50:53.679Z,101421.31
2022-09-05T11:53:51.022Z,101425.03
2022-09-05T11:57:06.444Z,101424.25
2022-09-05T12:00:33.851Z,101424.22
2022-09-05T12:03:59.774Z,101428.50
2022-09-05T12:07:26.346Z,101418.25
2022-09-05T12:10:43.477Z,101414.28
2022-09-05T12:13:21.897Z,101396.38
2022-09-05T12:16:07.522Z,101419.19
2022-09-05T12:18:44.189Z,101417.88
2022-09-05T12:21:27.518Z,101389.72
2022-09-05T12:25:16.571Z,101405.03
2022-09-05T12:27:37.084Z,101403.25
2022-09-05T12:29:59.994Z,101401.75
2022-09-05T12:34:44.995Z,101380.59
2022-09-05T12:36:04.061Z,101403.44
2022-09-05T12:41:01.258Z,101408.97
2022-09-05T12:41:45.266Z,101403.97
2022-09-05T12:44:42.741Z,101394.84
2022-09-05T12:47:16.871Z,101384.03
2022-09-05T12:50:02.459Z,101381.09
2022-09-05T12:52:42.525Z,101394.16
2022-09-05T12:55:20.914Z,101389.34
2022-09-05T13:03:05.982Z,101391.53
2022-09-05T13:03:12.130Z,101389.59
2022-09-05T13:03:34.351Z,101392.09
2022-09-05T13:06:08.802Z,101377.81
2022-09-05T13:08:59.263Z,101373.56
2022-09-05T13:14:46.291Z,101391.13
2022-09-05T13:14:54.124Z,101385.78
2022-09-05T13:17:14.634Z,101384.25
2022-09-05T13:19:51.535Z,101378.31
2022-09-05T13:22:24.988Z,101384.94
2022-09-05T13:25:01.330Z,101384.22
2022-09-05T13:27:32.719Z,101375.66
2022-09-05T13:31:59.674Z,101370.34
2022-09-05T13:38:01.201Z,101381.72
2022-09-05T13:38:20.932Z,101380.53
2022-09-05T13:39:05.390Z,101379.63
2022-09-05T13:41:37.669Z,101370.13
2022-09-05T13:44:25.112Z,101373.84
2022-09-05T13:46:59.613Z,101370.59
2022-09-05T13:49:33.345Z,101376.22
2022-09-05T13:52:28.052Z,101373.19
2022-09-05T13:55:10.688Z,101377.84
2022-09-05T13:57:42.957Z,101376.31
2022-09-05T14:00:50.637Z,101377.03
2022-09-05T14:04:00.848Z,101375.56
2022-09-05T14:10:06.889Z,101376.16
2022-09-05T14:12:39.622Z,101380.09
2022-09-05T14:46:20.171Z,101375.31
2022-09-05T14:49:15.527Z,101373.41
2022-09-05T14:51:48.272Z,101366.91
2022-09-05T14:58:37.062Z,101370.75
2022-09-05T15:02:41.957Z,101376.94
2022-09-05T15:03:03.969Z,101368.31
2022-09-05T15:05:41.868Z,101362.72
2022-09-05T15:08:24.051Z,101362.41
2022-09-05T15:12:16.999Z,101368.69
2022-09-05T15:13:57.495Z,101362.91
2022-09-05T15:16:26.574Z,101363.75
2022-09-05T15:18:56.441Z,101359.81
2022-09-05T15:21:33.179Z,101359.81
2022-09-05T15:24:13.480Z,101359.72
2022-09-05T15:26:50.349Z,101354.47
2022-09-05T15:29:23.940Z,101358.59
2022-09-05T15:31:58.924Z,101362.19
2022-09-05T15:34:39.457Z,101361.00
2022-09-05T15:37:23.522Z,101361.41
2022-09-05T15:40:02.197Z,101371.69
2022-09-05T15:42:33.144Z,101372.84
2022-09-05T15:45:10.201Z,101372.53
2022-09-05T15:47:41.819Z,101368.66
2022-09-05T15:50:22.238Z,101359.47
2022-09-05T15:52:55.208Z,101354.75
2022-09-05T15:55:26.274Z,101355.81
2022-09-05T15:57:56.842Z,101360.22
2022-09-05T16:00:51.244Z,101360.09
2022-09-05T16:06:37.701Z,101348.75
2022-09-05T16:10:38.382Z,101357.47
2022-09-05T16:10:38.655Z,101353.34
2022-09-05T16:12:31.527Z,101353.59
2022-09-05T16:15:53.511Z,101356.63
2022-09-05T16:23:24.935Z,101358.69
2022-09-05T16:23:25.122Z,101353.00
2022-09-05T16:23:46.389Z,101357.31
2022-09-05T16:26:25.138Z,101362.06
2022-09-05T16:28:58.790Z,101358.78
2022-09-05T16:31:35.872Z,101331.66
2022-09-05T16:34:11.696Z,101359.19
2022-09-05T16:36:52.725Z,101364.47
2022-09-05T16:39:42.480Z,101356.44
2022-09-05T16:42:18.027Z,101359.78
2022-09-05T16:44:51.425Z,101353.66
2022-09-05T16:47:25.652Z,101365.06
2022-09-05T16:50:02.412Z,101373.41
2022-09-05T16:52:38.385Z,101367.31
2022-09-05T16:55:29.239Z,101373.44
2022-09-05T16:58:05.458Z,101368.69
2022-09-05T17:00:52.240Z,101376.22
2022-09-05T17:03:28.430Z,101380.09
2022-09-05T17:06:06.365Z,101381.19
2022-09-05T17:08:36.959Z,101392.28
2022-09-05T17:11:12.181Z,101377.13
2022-09-05T17:13:46.653Z,101394.63
2022-09-05T17:16:23.384Z,101397.78
2022-09-05T17:18:53.169Z,101410.97
2022-09-05T17:21:46.926Z,101400.50
2022-09-05T17:29:28.936Z,101405.59
2022-09-05T17:29:29.472Z,101411.13
2022-09-05T17:32:56.575Z,101422.88
2022-09-05T17:35:42.667Z,101418.13
2022-09-05T17:38:42.373Z,101425.63
2022-09-05T17:41:54.679Z,101429.16
2022-09-05T17:44:29.215Z,101431.03
2022-09-05T17:47:15.299Z,101430.78
2022-09-05T17:49:45.823Z,101422.81
2022-09-05T17:52:24.242Z,101430.03
2022-09-05T17:54:56.579Z,101428.69
2022-09-05T17:57:45.288Z,101430.47
2022-09-05T18:01:06.429Z,101425.53
2022-09-05T18:04:16.279Z,101433.81
2022-09-05T18:07:00.386Z,101431.63
2022-09-05T18:10:12.501Z,101426.03
2022-09-05T18:13:13.158Z,101437.97
2022-09-05T18:16:03.741Z,101429.19
2022-09-05T18:19:28.826Z,101425.31
2022-09-05T18:21:43.037Z,101432.44
2022-09-05T18:24:24.417Z,101439.41
2022-09-05T18:27:11.314Z,101433.72
2022-09-05T18:29:58.102Z,101431.09
2022-09-05T18:32:46.662Z,101431.56
2022-09-05T18:35:27.971Z,101435.06
2022-09-05T18:38:27.495Z,101431.69
2022-09-05T18:41:14.207Z,101425.13
2022-09-05T18:44:14.056Z,101420.91
2022-09-05T18:46:51.707Z,101410.38
2022-09-05T18:50:21.592Z,101419.94
2022-09-05T18:52:23.778Z,101415.53
2022-09-05T18:55:56.428Z,101416.09
2022-09-05T18:57:48.112Z,101413.00
2022-09-05T19:00:25.064Z,101403.91
2022-09-05T19:03:08.565Z,101403.44
2022-09-05T19:05:41.981Z,101402.28
2022-09-05T19:08:38.537Z,101403.69
2022-09-05T19:11:27.676Z,101399.97
2022-09-05T19:14:26.480Z,101406.41
2022-09-05T19:16:49.715Z,101405.38
2022-09-05T19:19:24.748Z,101396.56
2022-09-05T19:21:56.223Z,101404.44
2022-09-05T19:24:46.064Z,101397.31
2022-09-05T19:31:34.876Z,101395.00
2022-09-05T19:36:58.277Z,101397.75
2022-09-05T19:37:04.609Z,101394.31
2022-09-05T19:37:05.922Z,101394.97
2022-09-05T19:40:15.700Z,101394.56
2022-09-05T19:47:35.282Z,101394.22
2022-09-05T19:47:45.142Z,101394.69
2022-09-05T19:47:56.567Z,101404.25
2022-09-05T19:50:21.625Z,101387.00
2022-09-05T19:52:53.031Z,101393.69
2022-09-05T19:55:23.752Z,101394.38
2022-09-05T19:58:18.421Z,101395.34
2022-09-05T20:00:50.365Z,101384.34
2022-09-05T20:03:37.161Z,101387.19
2022-09-05T20:06:29.429Z,101392.06
2022-09-05T20:09:10.062Z,101388.59
2022-09-05T20:11:45.593Z,101377.00
2022-09-05T20:14:20.561Z,101380.28
2022-09-05T20:16:50.797Z,101368.91
2022-09-05T20:19:28.650Z,101380.81
2022-09-05T20:22:45.177Z,101374.63
2022-09-05T20:24:50.729Z,101380.66
2022-09-05T20:27:18.880Z,101377.50
2022-09-05T20:29:55.897Z,101375.50
2022-09-05T20:32:39.441Z,101380.28
2022-09-05T20:38:17.742Z,101369.88
2022-09-05T20:43:10.285Z,101383.25
2022-09-05T20:43:20.079Z,101380.59
2022-09-05T20:43:52.735Z,101381.56
2022-09-05T20:48:25.380Z,101380.69
2022-09-05T20:54:06.773Z,101375.09
2022-09-05T20:54:27.679Z,101377.22
2022-09-05T20:55:09.274Z,101371.56
2022-09-05T20:57:50.912Z,101377.06
2022-09-05T21:00:22.093Z,101378.75
2022-09-05T21:02:56.076Z,101379.19
2022-09-05T21:05:31.358Z,101369.69
2022-09-05T21:08:32.544Z,101368.59
2022-09-05T21:11:02.822Z,101369.44
2022-09-05T21:13:33.407Z,101372.63
2022-09-05T21:16:04.414Z,101368.22
2022-09-05T21:18:34.313Z,101374.03
2022-09-05T21:21:11.656Z,101380.81
2022-09-05T21:24:17.587Z,101371.50
2022-09-05T21:26:48.623Z,101372.47
2022-09-05T21:29:26.058Z,101371.44
2022-09-05T21:32:02.078Z,101369.31
2022-09-05T21:34:34.457Z,101365.97
2022-09-05T21:37:07.448Z,101357.88
2022-09-05T21:39:40.421Z,101361.88
2022-09-05T21:44:55.555Z,101363.53
2022-09-05T21:47:40.771Z,101378.75
2022-09-05T21:48:07.468Z,101361.88
2022-09-05T21:50:42.527Z,101365.94
2022-09-05T21:59:10.272Z,101363.53
2022-09-05T21:59:26.137Z,101359.28
2022-09-05T21:59:30.401Z,101370.31
2022-09-05T22:01:53.339Z,101372.25
2022-09-05T22:04:22.734Z,101377.28
2022-09-05T22:06:53.233Z,101376.19
2022-09-05T22:09:23.732Z,101374.25
2022-09-05T22:11:52.682Z,101365.66
2022-09-05T22:14:22.182Z,101366.38
2022-09-05T22:16:51.829Z,101370.66
2022-09-05T22:19:27.036Z,101357.28
2022-09-05T22:22:16.014Z,101353.97
2022-09-05T22:24:50.398Z,101349.72
2022-09-05T22:27:20.206Z,101365.72
2022-09-05T22:29:50.476Z,101357.50
2022-09-05T22:32:32.335Z,101359.28
2022-09-05T22:35:27.154Z,101353.63
2022-09-05T22:37:59.408Z,101348.47
2022-09-05T22:40:30.554Z,101360.91
2022-09-05T22:42:59.786Z,101355.63
2022-09-05T22:45:29.252Z,101357.16
2022-09-05T22:47:57.277Z,101368.41
2022-09-05T22:50:25.981Z,101358.97
2022-09-05T22:52:54.264Z,101357.28
2022-09-05T22:55:22.305Z,101353.69
2022-09-05T22:57:51.681Z,101354.28
2022-09-05T23:00:19.751Z,101353.44
2022-09-05T23:02:52.225Z,101356.31
2022-09-05T23:05:20.757Z,101353.69
2022-09-05T23:07:48.781Z,101353.69
2022-09-05T23:10:17.470Z,101345.16
2022-09-05T23:12:46.185Z,101347.63
2022-09-05T23:15:16.216Z,101352.09
2022-09-05T23:17:44.365Z,101336.84
2022-09-05T23:20:12.601Z,101356.22
2022-09-05T23:22:40.698Z,101357.84
2022-09-05T23:25:09.799Z,101353.63
2022-09-05T23:27:38.520Z,101347.38
2022-09-05T23:30:08.668Z,101352.28
2022-09-05T23:32:44.317Z,101333.03
2022-09-05T23:35:12.353Z,101332.75
2022-09-05T23:37:43.250Z,101336.50
2022-09-05T23:40:12.146Z,101334.22
2022-09-05T23:42:40.150Z,101328.13
2022-09-05T23:45:09.719Z,101329.81
2022-09-05T23:47:39.222Z,101329.22
2022-09-05T23:50:08.224Z,101320.03
2022-09-05T23:52:39.557Z,101332.69
2022-09-05T23:55:08.505Z,101332.13
2022-09-05T23:57:36.721Z,101333.78
